Time;durP1;ratioP1;P1;durP2;ratioP2;P2;SDS_P1;SDS_P2;PMS_P1;PMS_P2;Temp;Humidity;BMP_temperature;BMP_pressure;BME280_temperature;BME280_humidity;BME280_pressure;Samples;Min_cycle;Max_cycle;Signal;HPM_P1;HPM_P2
2020/12/01 00:01:15;;;;;;;38.20;22.13;;;3.20;99.90;;;;;;5047612;28;20053;-49
2020/12/01 00:03:41;;;;;;;39.28;21.65;;;3.20;99.90;;;;;;5048519;28;20021;-50
2020/12/01 00:06:07;;;;;;;39.88;21.38;;;3.30;99.90;;;;;;5047268;28;20028;-51
2020/12/01 00:08:36;;;;;;;37.63;20.30;;;3.30;99.90;;;;;;5047546;28;20029;-48
2020/12/01 00:11:04;;;;;;;36.40;20.30;;;3.30;99.90;;;;;;5046208;28;20036;-52
2020/12/01 00:13:29;;;;;;;43.08;21.88;;;3.30;99.90;;;;;;5047392;28;20283;-50
2020/12/01 00:15:55;;;;;;;36.80;19.65;;;3.30;99.90;;;;;;5047065;28;20086;-49
2020/12/01 00:18:20;;;;;;;34.47;18.60;;;3.30;99.90;;;;;;5051276;28;20021;-49
2020/12/01 00:20:46;;;;;;;36.03;18.83;;;3.40;99.90;;;;;;5051593;28;20029;-47
2020/12/01 00:23:11;;;;;;;35.20;18.58;;;3.30;99.90;;;;;;5051855;28;20482;-48
2020/12/01 00:25:37;;;;;;;32.42;18.23;;;3.40;99.90;;;;;;5053194;28;20029;-48
2020/12/01 00:28:02;;;;;;;35.40;19.40;;;3.40;99.90;;;;;;5050483;28;20040;-50
2020/12/01 00:30:27;;;;;;;30.85;19.38;;;3.40;99.90;;;;;;5036431;28;20068;-52
2020/12/01 00:32:53;;;;;;;31.30;18.08;;;3.40;99.90;;;;;;5052676;28;20036;-49
2020/12/01 00:35:23;;;;;;;28.65;16.85;;;3.30;99.90;;;;;;5051801;28;20032;-48
2020/12/01 00:37:49;;;;;;;26.52;16.48;;;3.40;99.90;;;;;;5051660;28;20029;-48
2020/12/01 00:40:19;;;;;;;31.33;17.02;;;3.40;99.90;;;;;;5050310;28;20021;-51
2020/12/01 00:42:45;;;;;;;30.90;17.38;;;3.40;99.90;;;;;;5032595;28;20025;-51
2020/12/01 00:45:11;;;;;;;26.23;15.95;;;3.40;99.90;;;;;;5033522;28;20021;-49
2020/12/01 00:47:37;;;;;;;32.85;17.50;;;3.40;99.90;;;;;;5051717;28;20035;-49
2020/12/01 00:50:06;;;;;;;27.80;15.75;;;3.40;99.90;;;;;;5051728;28;20441;-50
2020/12/01 00:52:31;;;;;;;27.35;15.68;;;3.40;99.90;;;;;;5050861;28;20029;-48
2020/12/01 00:54:57;;;;;;;27.00;15.80;;;3.50;99.90;;;;;;5051496;28;20032;-51
2020/12/01 00:57:22;;;;;;;27.05;15.68;;;3.50;99.90;;;;;;5052315;28;20108;-50
2020/12/01 00:59:48;;;;;;;27.35;15.70;;;3.50;99.90;;;;;;5051186;28;20528;-51
2020/12/01 01:02:13;;;;;;;26.85;15.40;;;3.50;99.90;;;;;;5052305;28;20055;-48
2020/12/01 01:04:39;;;;;;;27.00;16.00;;;3.50;99.90;;;;;;5039119;28;20382;-50
2020/12/01 01:07:05;;;;;;;29.98;16.25;;;3.60;99.90;;;;;;5043028;28;20033;-50
2020/12/01 01:09:30;;;;;;;24.52;15.13;;;3.60;99.90;;;;;;5051974;28;20517;-48
2020/12/01 01:11:56;;;;;;;28.08;15.25;;;3.60;99.90;;;;;;5052306;28;20029;-49
2020/12/01 01:14:21;;;;;;;24.45;14.95;;;3.60;99.90;;;;;;5051179;28;20033;-50
2020/12/01 01:16:47;;;;;;;25.13;14.98;;;3.60;99.90;;;;;;5052431;28;20039;-52
2020/12/01 01:19:13;;;;;;;28.80;14.73;;;3.60;99.90;;;;;;5051446;28;20040;-47
2020/12/01 01:21:43;;;;;;;27.77;15.50;;;3.60;99.90;;;;;;5043480;28;20630;-49
2020/12/01 01:24:11;;;;;;;31.23;15.43;;;3.60;99.90;;;;;;5040574;28;20502;-48
2020/12/01 01:26:36;;;;;;;24.60;14.50;;;3.60;99.90;;;;;;5031808;28;20037;-49
2020/12/01 01:29:02;;;;;;;24.17;14.57;;;3.60;99.90;;;;;;5037842;28;20029;-48
2020/12/01 01:31:28;;;;;;;24.65;14.82;;;3.70;99.90;;;;;;5049977;28;20362;-48
2020/12/01 01:33:55;;;;;;;25.20;15.65;;;3.70;99.90;;;;;;5042373;28;20048;-51
2020/12/01 01:36:20;;;;;;;24.92;16.20;;;3.70;99.90;;;;;;5051077;28;20025;-48
2020/12/01 01:38:46;;;;;;;32.15;15.90;;;3.70;99.90;;;;;;5036422;28;20022;-49
2020/12/01 01:41:11;;;;;;;23.95;15.00;;;3.70;99.90;;;;;;5050791;28;20100;-49
2020/12/01 01:43:37;;;;;;;23.50;15.32;;;3.70;99.90;;;;;;5032302;28;20108;-49
2020/12/01 01:46:33;;;;;;;26.30;15.85;;;3.70;99.90;;;;;;5032352;28;20375;-50
2020/12/01 01:49:00;;;;;;;26.90;17.15;;;3.70;99.90;;;;;;5041101;28;20033;-51
2020/12/01 01:51:26;;;;;;;28.17;16.75;;;3.70;99.90;;;;;;5051095;28;20055;-49
2020/12/01 01:53:54;;;;;;;25.58;15.68;;;3.80;99.90;;;;;;5043657;28;20031;-48
2020/12/01 01:56:29;;;;;;;27.15;16.15;;;3.80;99.90;;;;;;5048369;28;20669;-48
2020/12/01 01:58:57;;;;;;;25.73;16.40;;;3.70;99.90;;;;;;5049468;28;20677;-47
2020/12/01 02:01:27;;;;;;;28.92;15.80;;;3.80;99.90;;;;;;5047531;28;20017;-49
2020/12/01 02:03:58;;;;;;;26.20;15.07;;;3.80;99.90;;;;;;5049079;28;20084;-49
2020/12/01 02:06:40;;;;;;;24.13;15.23;;;3.80;99.90;;;;;;5050877;28;20028;-48
2020/12/01 02:09:07;;;;;;;27.85;16.30;;;3.80;99.90;;;;;;5051470;28;20424;-49
2020/12/01 02:11:34;;;;;;;27.35;14.90;;;3.80;99.90;;;;;;5050357;28;20028;-51
2020/12/01 02:14:18;;;;;;;26.30;15.50;;;3.80;99.90;;;;;;5048819;28;20028;-51
2020/12/01 02:16:47;;;;;;;22.90;14.75;;;3.80;99.90;;;;;;5049746;28;20108;-49
2020/12/01 02:19:17;;;;;;;22.83;14.85;;;3.80;99.90;;;;;;5044732;28;20076;-50
2020/12/01 02:21:43;;;;;;;25.23;15.68;;;3.80;99.90;;;;;;5038777;28;20021;-50
2020/12/01 02:24:21;;;;;;;29.83;16.73;;;3.80;99.90;;;;;;5049468;28;20029;-50
2020/12/01 02:26:53;;;;;;;26.95;16.58;;;3.80;99.90;;;;;;5051483;28;20039;-48
2020/12/01 02:29:23;;;;;;;25.88;15.95;;;3.80;99.90;;;;;;5049415;28;20120;-48
2020/12/01 02:31:48;;;;;;;28.95;16.75;;;3.80;99.90;;;;;;5050106;28;20098;-51
2020/12/01 02:34:17;;;;;;;26.15;16.63;;;3.80;99.90;;;;;;5050706;28;20635;-49
2020/12/01 02:36:43;;;;;;;30.40;18.67;;;3.80;99.90;;;;;;5039201;28;20037;-49
2020/12/01 02:39:11;;;;;;;29.13;17.77;;;3.80;99.90;;;;;;5050086;28;20366;-49
2020/12/01 02:41:39;;;;;;;28.10;17.23;;;3.80;99.90;;;;;;5047310;28;20736;-48
2020/12/01 02:44:06;;;;;;;30.85;17.40;;;3.80;99.90;;;;;;5050416;28;20025;-49
2020/12/01 02:46:36;;;;;;;32.33;18.63;;;3.70;99.90;;;;;;5050398;28;20025;-49
2020/12/01 02:49:04;;;;;;;29.77;18.70;;;3.70;99.90;;;;;;5030669;28;20025;-50
2020/12/01 02:51:29;;;;;;;35.67;19.65;;;3.70;99.90;;;;;;5028924;28;20348;-51
2020/12/01 02:53:55;;;;;;;30.55;18.90;;;3.70;99.90;;;;;;5030334;28;20083;-50
2020/12/01 02:56:20;;;;;;;31.73;18.27;;;3.70;99.90;;;;;;5029731;28;20033;-50
2020/12/01 02:58:45;;;;;;;31.25;18.50;;;3.70;99.90;;;;;;5029569;28;20160;-51
2020/12/01 03:01:11;;;;;;;33.60;19.77;;;3.70;99.90;;;;;;5028815;28;20044;-51
2020/12/01 03:03:36;;;;;;;32.35;19.40;;;3.70;99.90;;;;;;5037805;28;20102;-48
2020/12/01 03:06:11;;;;;;;34.53;20.10;;;3.80;99.90;;;;;;5034089;28;20033;-48
2020/12/01 03:08:36;;;;;;;34.45;21.00;;;3.70;99.90;;;;;;5046909;28;20032;-47
2020/12/01 03:11:02;;;;;;;34.90;22.35;;;3.80;99.90;;;;;;5048730;28;20029;-49
2020/12/01 03:13:27;;;;;;;35.38;21.65;;;3.70;99.90;;;;;;5049113;28;20366;-49
2020/12/01 03:15:55;;;;;;;39.60;22.48;;;3.70;99.90;;;;;;5049956;28;20378;-51
2020/12/01 03:18:21;;;;;;;40.92;23.77;;;3.70;99.90;;;;;;5034796;28;20018;-50
2020/12/01 03:20:46;;;;;;;40.13;24.05;;;3.80;99.90;;;;;;5028285;28;20032;-51
2020/12/01 03:23:12;;;;;;;39.05;21.65;;;3.80;99.90;;;;;;5041407;28;20030;-52
2020/12/01 03:25:37;;;;;;;38.53;23.38;;;3.80;99.90;;;;;;5035060;28;20494;-50
2020/12/01 03:28:03;;;;;;;38.08;22.92;;;3.80;99.90;;;;;;5034557;28;20079;-51
2020/12/01 03:30:28;;;;;;;40.13;23.52;;;3.80;99.90;;;;;;5029790;28;20609;-52
2020/12/01 03:32:54;;;;;;;44.25;24.75;;;3.80;99.90;;;;;;5039088;28;20112;-50
2020/12/01 03:35:19;;;;;;;44.55;24.27;;;3.80;99.90;;;;;;5049435;28;20021;-53
2020/12/01 03:37:45;;;;;;;42.47;24.98;;;3.70;99.90;;;;;;5048414;28;20571;-47
2020/12/01 03:40:10;;;;;;;43.03;24.60;;;3.70;99.90;;;;;;5050036;28;20444;-48
2020/12/01 03:42:36;;;;;;;40.80;24.45;;;3.70;99.90;;;;;;5048221;28;20029;-48
2020/12/01 03:45:02;;;;;;;43.35;25.60;;;3.70;99.90;;;;;;5050017;28;20021;-48
2020/12/01 03:47:27;;;;;;;41.97;23.92;;;3.70;99.90;;;;;;5042527;28;20514;-48
2020/12/01 03:49:53;;;;;;;40.83;24.52;;;3.70;99.90;;;;;;5038718;28;20037;-49
2020/12/01 03:52:18;;;;;;;42.67;25.05;;;3.70;99.90;;;;;;5047474;28;20045;-47
2020/12/01 03:54:43;;;;;;;41.28;24.67;;;3.80;99.90;;;;;;5048743;28;20108;-51
2020/12/01 03:57:09;;;;;;;41.53;25.08;;;3.70;99.90;;;;;;5048632;28;20037;-49
2020/12/01 03:59:34;;;;;;;41.92;23.67;;;3.70;99.90;;;;;;5045765;28;20017;-48
2020/12/01 04:02:00;;;;;;;42.75;24.45;;;3.70;99.90;;;;;;5036937;28;20040;-49
2020/12/01 04:04:28;;;;;;;44.35;25.65;;;3.60;99.90;;;;;;5048785;28;20029;-50
2020/12/01 04:06:58;;;;;;;42.08;25.55;;;3.60;99.90;;;;;;5048840;28;20074;-48
2020/12/01 04:09:24;;;;;;;40.95;24.92;;;3.60;99.90;;;;;;5047829;28;20040;-49
2020/12/01 04:11:50;;;;;;;44.60;24.63;;;3.60;99.90;;;;;;5048281;28;20029;-50
2020/12/01 04:14:16;;;;;;;45.63;27.15;;;3.60;99.90;;;;;;5048329;28;20114;-52
2020/12/01 04:16:42;;;;;;;41.08;25.00;;;3.60;99.90;;;;;;5047954;28;20640;-52
2020/12/01 04:19:07;;;;;;;42.72;24.60;;;3.60;99.90;;;;;;5036089;28;20025;-49
2020/12/01 04:21:33;;;;;;;43.45;24.67;;;3.60;99.90;;;;;;5047879;28;20037;-50
2020/12/01 04:23:58;;;;;;;42.97;25.33;;;3.60;99.90;;;;;;5049011;28;20028;-49
2020/12/01 04:26:24;;;;;;;46.65;25.92;;;3.70;99.90;;;;;;5046939;28;20039;-49
2020/12/01 04:28:50;;;;;;;43.67;24.67;;;3.70;99.90;;;;;;5048741;28;20121;-48
2020/12/01 04:31:16;;;;;;;41.35;24.67;;;3.60;99.90;;;;;;5045585;28;20552;-49
2020/12/01 04:33:42;;;;;;;38.25;23.05;;;3.70;99.90;;;;;;5028735;28;20037;-48
2020/12/01 04:36:08;;;;;;;43.20;25.45;;;3.70;99.90;;;;;;5028810;28;20038;-51
2020/12/01 04:38:34;;;;;;;42.85;24.38;;;3.80;99.90;;;;;;5045221;28;20379;-52
2020/12/01 04:41:00;;;;;;;46.72;25.40;;;3.70;99.90;;;;;;5048767;28;20108;-49
2020/12/01 04:43:41;;;;;;;45.83;25.75;;;3.80;99.90;;;;;;5049482;28;20100;-50
2020/12/01 04:46:12;;;;;;;43.00;26.10;;;3.80;99.90;;;;;;5049548;28;20586;-49
2020/12/01 04:49:07;;;;;;;;;;;3.80;99.90;;;;;;5032663;28;20072;-50
2020/12/01 04:51:45;;;;;;;45.03;24.48;;;3.70;99.90;;;;;;5037869;28;19928;-51
2020/12/01 04:54:29;;;;;;;39.10;24.15;;;3.80;99.90;;;;;;5048923;28;20061;-50
2020/12/01 04:57:26;;;;;;;42.38;25.85;;;3.80;99.90;;;;;;5048253;28;20585;-50
2020/12/01 05:00:15;;;;;;;37.70;22.30;;;3.80;99.90;;;;;;5049086;28;20025;-50
2020/12/01 05:03:09;;;;;;;39.80;23.33;;;3.80;99.90;;;;;;5040959;28;20021;-48
2020/12/01 05:08:40;;;;;;;37.65;22.17;;;3.70;99.90;;;;;;5031793;28;20417;-48
2020/12/01 05:11:23;;;;;;;40.45;22.45;;;3.70;99.90;;;;;;5031847;28;20113;-51
2020/12/01 05:13:57;;;;;;;34.75;21.75;;;3.80;99.90;;;;;;5032420;28;20017;-50
2020/12/01 05:16:45;;;;;;;33.85;20.65;;;3.80;99.90;;;;;;5031987;28;20029;-51
2020/12/01 05:19:41;;;;;;;39.47;23.73;;;3.80;99.90;;;;;;5042923;28;20040;-52
2020/12/01 05:22:07;;;;;;;35.92;21.23;;;3.80;99.90;;;;;;5045863;28;20474;-49
2020/12/01 05:24:46;;;;;;;37.58;21.73;;;3.90;99.90;;;;;;5041387;28;20029;-49
2020/12/01 05:27:25;;;;;;;37.13;22.77;;;3.90;99.90;;;;;;5041627;28;20017;-49
2020/12/01 05:29:59;;;;;;;41.25;23.65;;;3.90;99.90;;;;;;5051641;28;20059;-50
2020/12/01 05:32:32;;;;;;;38.33;21.35;;;3.90;99.90;;;;;;5045315;28;20037;-48
2020/12/01 05:35:16;;;;;;;38.50;22.00;;;3.90;99.90;;;;;;5049374;28;20025;-53
2020/12/01 05:37:58;;;;;;;38.75;22.20;;;3.90;99.90;;;;;;5035709;28;20026;-52
2020/12/01 05:40:26;;;;;;;35.75;20.40;;;4.00;99.90;;;;;;5043439;28;20399;-51
2020/12/01 05:42:52;;;;;;;36.55;21.50;;;4.00;99.90;;;;;;5050915;28;20116;-50
2020/12/01 05:45:36;;;;;;;39.05;21.77;;;4.00;99.90;;;;;;5050903;28;20044;-48
2020/12/01 05:48:28;;;;;;;34.30;21.60;;;4.00;99.90;;;;;;5038957;28;20383;-48
2020/12/01 05:51:01;;;;;;;32.67;21.50;;;4.10;99.90;;;;;;5029814;28;20026;-49
2020/12/01 05:53:26;;;;;;;35.83;21.20;;;4.10;99.90;;;;;;5043971;28;20025;-50
2020/12/01 05:56:01;;;;;;;34.70;20.75;;;4.10;99.90;;;;;;5037630;28;20033;-48
2020/12/01 05:58:36;;;;;;;36.15;20.13;;;4.10;99.90;;;;;;5038869;28;20032;-48
2020/12/01 06:01:02;;;;;;;34.33;19.83;;;4.10;99.90;;;;;;5037819;28;20053;-49
2020/12/01 06:03:35;;;;;;;33.58;20.85;;;4.10;99.90;;;;;;5042423;28;20524;-50
2020/12/01 06:06:01;;;;;;;35.35;22.13;;;4.10;99.90;;;;;;5031175;28;20091;-49
2020/12/01 06:08:54;;;;;;;31.95;20.50;;;4.10;99.90;;;;;;5030746;28;20025;-50
2020/12/01 06:11:37;;;;;;;32.75;20.65;;;4.20;99.90;;;;;;5033411;28;20051;-50
2020/12/01 06:14:23;;;;;;;32.03;19.60;;;4.20;99.90;;;;;;5044244;28;20025;-49
2020/12/01 06:16:55;;;;;;;34.65;20.23;;;4.20;99.90;;;;;;5040848;28;20029;-51
2020/12/01 06:19:29;;;;;;;32.28;20.00;;;4.20;99.90;;;;;;5039321;28;20025;-52
2020/12/01 06:22:09;;;;;;;36.72;22.23;;;4.20;99.90;;;;;;5038898;28;20343;-48
2020/12/01 06:25:12;;;;;;;35.30;21.95;;;4.30;99.90;;;;;;5030694;28;20025;-49
2020/12/01 06:28:06;;;;;;;38.33;23.77;;;4.30;99.90;;;;;;5029796;28;20057;-49
2020/12/01 06:30:46;;;;;;;39.45;22.25;;;4.30;99.90;;;;;;5030865;28;20029;-49
2020/12/01 06:33:35;;;;;;;41.00;23.00;;;4.30;99.90;;;;;;5031333;28;20031;-52
2020/12/01 06:36:41;;;;;;;43.42;24.48;;;4.30;99.90;;;;;;5047687;28;20501;-50
2020/12/01 06:39:28;;;;;;;39.90;24.35;;;4.30;99.90;;;;;;5041185;28;20619;-53
2020/12/01 06:42:09;;;;;;;37.70;22.65;;;4.30;99.90;;;;;;5030141;28;20021;-52
2020/12/01 06:44:37;;;;;;;41.22;25.25;;;4.30;99.90;;;;;;5030156;28;20083;-51
2020/12/01 06:47:02;;;;;;;37.90;22.45;;;4.20;99.90;;;;;;5041193;28;20037;-49
2020/12/01 06:49:32;;;;;;;40.55;24.65;;;4.30;99.90;;;;;;5034577;28;20037;-52
2020/12/01 06:52:04;;;;;;;42.40;24.08;;;4.30;99.90;;;;;;5035752;28;20029;-48
2020/12/01 06:54:31;;;;;;;42.05;24.20;;;4.30;99.90;;;;;;5042194;28;20025;-47
2020/12/01 06:57:06;;;;;;;36.65;22.67;;;4.30;99.90;;;;;;5049055;28;20025;-50
2020/12/01 06:59:32;;;;;;;40.05;22.88;;;4.30;99.90;;;;;;5028524;28;20090;-49
2020/12/01 07:02:18;;;;;;;39.10;22.77;;;4.30;99.90;;;;;;5027444;28;20470;-49
2020/12/01 07:04:43;;;;;;;42.33;24.60;;;4.30;99.90;;;;;;5036520;28;20363;-50
2020/12/01 07:07:29;;;;;;;42.20;24.90;;;4.30;99.90;;;;;;5047467;28;20090;-48
2020/12/01 07:09:55;;;;;;;42.33;24.23;;;4.30;99.90;;;;;;5035370;28;20037;-49
2020/12/01 07:12:47;;;;;;;40.42;23.88;;;4.30;99.90;;;;;;5039256;28;20144;-51
2020/12/01 07:15:26;;;;;;;39.10;23.40;;;4.20;99.90;;;;;;5046953;28;20435;-50
2020/12/01 07:18:02;;;;;;;41.92;24.73;;;4.20;99.90;;;;;;5034618;28;20025;-49
2020/12/01 07:20:58;;;;;;;40.25;22.25;;;4.30;99.90;;;;;;5028611;28;20029;-48
2020/12/01 07:23:27;;;;;;;43.67;25.33;;;4.20;99.90;;;;;;5036704;28;20022;-48
2020/12/01 07:26:01;;;;;;;41.20;26.08;;;4.30;99.90;;;;;;5030574;28;20022;-48
2020/12/01 07:28:36;;;;;;;39.78;23.38;;;4.30;99.90;;;;;;5048296;28;20502;-49
2020/12/01 07:31:17;;;;;;;40.22;23.50;;;4.30;99.90;;;;;;5048167;28;20021;-48
2020/12/01 07:34:15;;;;;;;42.97;24.70;;;4.20;99.90;;;;;;5048796;28;20126;-49
2020/12/01 07:36:44;;;;;;;42.83;25.42;;;4.30;99.90;;;;;;5046994;28;20387;-49
2020/12/01 07:39:17;;;;;;;40.13;23.52;;;4.30;99.90;;;;;;5038216;28;20167;-50
2020/12/01 07:41:52;;;;;;;43.58;24.35;;;4.20;99.90;;;;;;5028042;28;20104;-48
2020/12/01 07:44:24;;;;;;;39.90;22.63;;;4.30;99.90;;;;;;5036864;28;20021;-47
2020/12/01 07:47:13;;;;;;;44.00;27.20;;;4.30;99.90;;;;;;5030982;28;20036;-49
2020/12/01 07:49:39;;;;;;;40.10;24.65;;;4.30;99.90;;;;;;5040817;28;20516;-49
2020/12/01 07:52:14;;;;;;;37.70;24.08;;;4.30;99.90;;;;;;5030545;28;20124;-48
2020/12/01 07:54:41;;;;;;;39.78;23.90;;;4.30;99.90;;;;;;5025356;28;20034;-51
2020/12/01 07:57:16;;;;;;;41.88;24.58;;;4.30;99.90;;;;;;5041901;28;20481;-48
2020/12/01 07:59:46;;;;;;;42.47;24.73;;;4.30;99.90;;;;;;5046404;28;20021;-48
2020/12/01 08:02:14;;;;;;;41.28;24.73;;;4.40;99.90;;;;;;5039032;28;20120;-48
2020/12/01 08:04:39;;;;;;;36.20;22.42;;;4.30;99.90;;;;;;5042524;28;20028;-49
2020/12/01 08:07:06;;;;;;;41.42;23.75;;;4.40;99.90;;;;;;5032275;28;20478;-49
2020/12/01 08:09:32;;;;;;;39.55;23.58;;;4.40;99.90;;;;;;5033547;28;20091;-47
2020/12/01 08:12:05;;;;;;;45.88;27.00;;;4.40;99.90;;;;;;5029358;28;20029;-48
2020/12/01 08:14:31;;;;;;;38.00;23.83;;;4.40;99.90;;;;;;5038154;28;20179;-49
2020/12/01 08:17:16;;;;;;;46.85;26.20;;;4.40;99.90;;;;;;5044361;28;20465;-49
2020/12/01 08:19:42;;;;;;;40.53;24.85;;;4.40;99.90;;;;;;5030908;28;20026;-48
2020/12/01 08:22:14;;;;;;;35.17;21.48;;;4.40;99.90;;;;;;5042825;28;20650;-48
2020/12/01 08:24:42;;;;;;;42.17;22.17;;;4.40;99.90;;;;;;5046345;28;20025;-47
2020/12/01 08:27:21;;;;;;;39.45;23.60;;;4.40;99.90;;;;;;5045714;28;20082;-48
2020/12/01 08:29:50;;;;;;;39.72;23.45;;;4.40;99.90;;;;;;5046794;28;20025;-49
2020/12/01 08:32:25;;;;;;;35.83;21.50;;;4.40;99.90;;;;;;5046191;28;20029;-50
2020/12/01 08:35:16;;;;;;;35.17;22.70;;;4.30;99.90;;;;;;5046550;28;20035;-51
2020/12/01 08:38:03;;;;;;;;;;;4.30;99.90;;;;;;5036109;28;20053;-48
2020/12/01 08:40:50;;;;;;;33.22;20.58;;;4.30;99.90;;;;;;5030824;28;19905;-50
2020/12/01 08:43:27;;;;;;;35.22;20.48;;;4.40;99.90;;;;;;5031783;28;20024;-49
2020/12/01 08:46:07;;;;;;;38.65;22.27;;;4.40;99.90;;;;;;5030579;28;20087;-49
2020/12/01 08:48:38;;;;;;;38.45;22.00;;;4.50;99.90;;;;;;5031512;28;20030;-48
2020/12/01 08:51:28;;;;;;;43.10;24.17;;;4.50;99.90;;;;;;5033673;28;20021;-49
2020/12/01 08:53:59;;;;;;;38.00;22.57;;;4.60;99.90;;;;;;5047662;28;20027;-50
2020/12/01 08:56:38;;;;;;;39.65;24.17;;;4.70;99.90;;;;;;5050999;28;20124;-49
2020/12/01 08:59:06;;;;;;;45.05;25.17;;;4.60;99.90;;;;;;5046595;28;20506;-48
2020/12/01 09:01:39;;;;;;;43.20;24.48;;;4.70;99.90;;;;;;5035196;28;20075;-48
2020/12/01 09:04:05;;;;;;;40.67;22.75;;;4.70;99.90;;;;;;5037292;28;20033;-49
2020/12/01 09:06:35;;;;;;;43.03;25.77;;;4.70;99.90;;;;;;5036282;28;20033;-48
2020/12/01 09:09:08;;;;;;;38.95;22.17;;;4.80;99.90;;;;;;5050861;28;20029;-48
2020/12/01 09:12:06;;;;;;;36.72;22.38;;;4.80;99.90;;;;;;5051150;28;20040;-48
2020/12/01 09:17:22;;;;;;;36.00;22.80;;;4.80;99.90;;;;;;5031898;28;20044;-50
2020/12/01 09:22:28;;;;;;;37.20;22.70;;;4.90;99.90;;;;;;5037708;28;20041;-51
2020/12/01 09:25:06;;;;;;;35.53;21.90;;;4.90;99.90;;;;;;5043158;28;20021;-48
2020/12/01 09:27:34;;;;;;;49.25;21.95;;;5.00;99.90;;;;;;5033982;28;20156;-48
2020/12/01 09:30:00;;;;;;;36.30;21.10;;;4.90;99.90;;;;;;5038938;28;20048;-52
2020/12/01 09:32:26;;;;;;;36.63;21.58;;;5.00;99.90;;;;;;5032270;28;20029;-49
2020/12/01 09:34:51;;;;;;;32.30;19.35;;;5.00;99.90;;;;;;5036271;28;20024;-48
2020/12/01 09:37:18;;;;;;;32.80;19.75;;;5.00;99.90;;;;;;5037166;28;20029;-49
2020/12/01 09:39:44;;;;;;;36.50;22.10;;;5.00;99.90;;;;;;5037169;28;20024;-50
2020/12/01 09:42:24;;;;;;;33.90;21.90;;;5.00;99.90;;;;;;5045809;28;20627;-48
2020/12/01 09:45:02;;;;;;;30.23;20.13;;;5.00;99.90;;;;;;5036851;28;20014;-49
2020/12/01 09:47:47;;;;;;;33.85;20.42;;;5.10;99.90;;;;;;5029685;28;20036;-51
2020/12/01 09:50:22;;;;;;;39.10;20.85;;;5.10;99.90;;;;;;5032744;28;20050;-49
2020/12/01 09:52:59;;;;;;;32.13;19.60;;;5.00;99.90;;;;;;5045019;28;20501;-48
2020/12/01 09:58:01;;;;;;;34.88;20.67;;;5.00;99.90;;;;;;5040020;28;20091;-52
2020/12/01 10:08:48;;;;;;;34.08;19.27;;;5.10;99.90;;;;;;5048307;28;20091;-49
2020/12/01 10:11:34;;;;;;;33.13;20.23;;;5.20;99.90;;;;;;5050740;28;20017;-48
2020/12/01 10:19:38;;;;;;;31.40;19.15;;;5.10;99.90;;;;;;5030321;28;20071;-49
2020/12/01 10:33:55;;;;;;;30.52;18.98;;;5.20;99.90;;;;;;5050228;28;20523;-49
2020/12/01 10:35:20;;;;;;;34.97;20.02;;;5.10;99.90;;;;;;5048448;28;20029;-51
2020/12/01 10:37:46;;;;;;;35.47;19.65;;;5.10;99.90;;;;;;5038992;28;20528;-52
2020/12/01 10:40:11;;;;;;;31.27;19.42;;;5.00;99.90;;;;;;5049811;28;20025;-49
2020/12/01 10:42:37;;;;;;;36.22;19.48;;;5.10;99.90;;;;;;5044761;28;20080;-50
2020/12/01 10:45:03;;;;;;;36.08;20.30;;;5.10;99.90;;;;;;5044690;28;20048;-50
2020/12/01 10:47:29;;;;;;;31.95;18.40;;;5.10;99.90;;;;;;5042748;28;20459;-48
2020/12/01 10:49:54;;;;;;;29.65;18.77;;;5.10;99.90;;;;;;5032015;28;20038;-50
2020/12/01 10:52:20;;;;;;;34.08;19.50;;;5.20;99.90;;;;;;5045184;28;20026;-49
2020/12/01 10:54:45;;;;;;;32.85;20.70;;;5.00;99.90;;;;;;5040303;28;20033;-51
2020/12/01 10:57:11;;;;;;;34.20;19.67;;;5.00;99.90;;;;;;5048640;28;20659;-49
2020/12/01 10:59:36;;;;;;;33.70;20.20;;;5.00;99.90;;;;;;5050021;28;20025;-52
2020/12/01 11:02:02;;;;;;;33.28;20.05;;;5.00;99.90;;;;;;5046785;28;20033;-50
2020/12/01 11:04:28;;;;;;;31.02;18.10;;;5.00;99.90;;;;;;5049431;28;20032;-49
2020/12/01 11:06:53;;;;;;;29.45;18.38;;;5.10;99.90;;;;;;5046950;28;20033;-48
2020/12/01 11:09:19;;;;;;;30.63;19.20;;;5.10;99.90;;;;;;5049214;28;20501;-49
2020/12/01 11:11:45;;;;;;;30.10;19.38;;;5.20;99.90;;;;;;5048560;28;20025;-48
2020/12/01 11:14:11;;;;;;;30.73;18.52;;;5.20;99.90;;;;;;5047522;28;20643;-50
2020/12/01 11:16:37;;;;;;;32.00;19.45;;;5.20;99.90;;;;;;5048681;28;20037;-49
2020/12/01 11:19:04;;;;;;;31.23;19.33;;;5.20;99.90;;;;;;5029602;28;20079;-50
2020/12/01 11:21:33;;;;;;;29.73;19.00;;;5.10;99.90;;;;;;5039182;28;20025;-50
2020/12/01 11:23:59;;;;;;;28.95;18.23;;;5.10;99.90;;;;;;5046385;28;20059;-49
2020/12/01 11:26:24;;;;;;;27.75;18.33;;;5.10;99.90;;;;;;5047668;28;20115;-51
2020/12/01 11:28:50;;;;;;;30.55;18.38;;;5.20;99.90;;;;;;5031707;28;20029;-51
2020/12/01 11:31:17;;;;;;;31.63;18.83;;;5.20;99.90;;;;;;5037884;28;20132;-50
2020/12/01 11:33:55;;;;;;;29.40;17.58;;;5.20;99.90;;;;;;5037735;28;20378;-50
2020/12/01 11:36:21;;;;;;;39.28;21.05;;;5.20;99.90;;;;;;5037110;28;20028;-51
2020/12/01 11:38:47;;;;;;;32.67;19.23;;;5.30;99.90;;;;;;5041066;28;20108;-48
2020/12/01 11:41:14;;;;;;;29.58;18.38;;;5.30;99.90;;;;;;5032177;28;20113;-50
2020/12/01 11:43:40;;;;;;;30.65;18.70;;;5.30;99.90;;;;;;5043022;28;20044;-48
2020/12/01 11:46:05;;;;;;;28.17;17.92;;;5.30;99.90;;;;;;5026730;28;20048;-51
2020/12/01 11:48:31;;;;;;;31.17;18.50;;;5.30;99.90;;;;;;5024839;28;20575;-48
2020/12/01 11:50:56;;;;;;;30.80;18.48;;;5.40;99.90;;;;;;5027481;28;20105;-48
2020/12/01 11:53:22;;;;;;;29.42;16.80;;;5.40;99.90;;;;;;5030070;28;20071;-50
2020/12/01 11:55:47;;;;;;;29.00;17.13;;;5.40;99.90;;;;;;5030085;28;20032;-49
2020/12/01 11:58:13;;;;;;;30.30;18.10;;;5.40;99.90;;;;;;5039276;28;20044;-50
2020/12/01 12:00:38;;;;;;;30.88;18.75;;;5.40;99.90;;;;;;5032573;28;20415;-50
2020/12/01 12:03:04;;;;;;;30.30;19.65;;;5.40;99.90;;;;;;5039717;28;20029;-51
2020/12/01 12:05:29;;;;;;;31.45;18.55;;;5.40;99.90;;;;;;5035746;28;20037;-55
2020/12/01 12:07:55;;;;;;;28.10;16.77;;;5.50;99.90;;;;;;5041600;28;20025;-52
2020/12/01 12:10:20;;;;;;;27.38;15.77;;;5.50;99.90;;;;;;5029610;28;20036;-50
2020/12/01 12:12:48;;;;;;;28.83;17.42;;;5.50;99.90;;;;;;5048034;28;20082;-50
2020/12/01 12:15:13;;;;;;;26.65;16.52;;;5.50;99.90;;;;;;5038242;28;20056;-50
2020/12/01 12:17:39;;;;;;;27.27;17.27;;;5.50;99.90;;;;;;5039846;28;20069;-48
2020/12/01 12:20:04;;;;;;;29.60;17.88;;;5.50;99.90;;;;;;5032851;28;20041;-49
2020/12/01 12:22:30;;;;;;;30.67;18.48;;;5.50;99.90;;;;;;5050014;28;20045;-48
2020/12/01 12:24:55;;;;;;;28.65;17.25;;;5.50;99.90;;;;;;5052330;28;20032;-48
2020/12/01 12:27:21;;;;;;;28.40;17.73;;;5.50;99.90;;;;;;5039692;28;20417;-50
2020/12/01 12:29:53;;;;;;;35.15;18.13;;;5.50;99.90;;;;;;5033358;28;20025;-49
2020/12/01 12:32:18;;;;;;;29.63;17.60;;;5.50;99.90;;;;;;5037620;28;20060;-49
2020/12/01 12:34:45;;;;;;;28.17;17.52;;;5.50;99.90;;;;;;5048484;28;20394;-48
2020/12/01 12:37:10;;;;;;;29.40;17.67;;;5.50;99.90;;;;;;5036743;28;20025;-49
2020/12/01 12:39:36;;;;;;;30.10;18.73;;;5.50;99.90;;;;;;5039084;28;20027;-50
2020/12/01 12:42:02;;;;;;;32.22;18.75;;;5.50;99.90;;;;;;5043408;28;20037;-48
2020/12/01 12:44:28;;;;;;;31.48;18.35;;;5.50;99.90;;;;;;5034121;28;20028;-47
2020/12/01 12:46:54;;;;;;;30.52;17.88;;;5.50;99.90;;;;;;5041096;28;20356;-48
2020/12/01 12:49:19;;;;;;;26.27;16.10;;;5.40;99.90;;;;;;5032667;28;20535;-50
2020/12/01 12:51:44;;;;;;;31.55;18.67;;;5.40;99.90;;;;;;5030730;28;20034;-52
2020/12/01 12:54:10;;;;;;;32.30;18.10;;;5.50;99.90;;;;;;5038856;28;20095;-48
2020/12/01 12:56:35;;;;;;;31.08;18.05;;;5.50;99.90;;;;;;5040984;28;20040;-48
2020/12/01 12:59:01;;;;;;;38.78;23.02;;;5.50;99.90;;;;;;5041321;28;20033;-50
2020/12/01 13:01:26;;;;;;;38.63;23.23;;;5.50;99.90;;;;;;5031328;28;20025;-49
2020/12/01 13:03:52;;;;;;;43.22;24.50;;;5.50;99.90;;;;;;5031392;28;20033;-51
2020/12/01 13:06:17;;;;;;;43.85;24.52;;;5.50;99.90;;;;;;5035406;28;20018;-49
2020/12/01 13:08:43;;;;;;;41.42;24.48;;;5.40;99.90;;;;;;5031425;28;20045;-49
2020/12/01 13:11:09;;;;;;;40.97;23.85;;;5.40;99.90;;;;;;5033902;28;20027;-52
2020/12/01 13:13:35;;;;;;;38.83;22.63;;;5.50;99.90;;;;;;5052197;28;20108;-50
2020/12/01 13:16:01;;;;;;;37.85;22.48;;;5.50;99.90;;;;;;5048553;28;20090;-50
2020/12/01 13:18:26;;;;;;;37.30;21.83;;;5.50;99.90;;;;;;5035305;28;20021;-50
2020/12/01 13:20:52;;;;;;;39.85;22.38;;;5.50;99.90;;;;;;5032816;28;20368;-49
2020/12/01 13:23:17;;;;;;;42.40;23.70;;;5.60;99.90;;;;;;5051234;28;20025;-48
2020/12/01 13:25:43;;;;;;;35.33;20.50;;;5.60;99.90;;;;;;5047746;28;20036;-49
2020/12/01 13:28:09;;;;;;;39.05;21.58;;;5.60;99.90;;;;;;5051352;28;20029;-50
2020/12/01 13:30:34;;;;;;;39.83;22.88;;;5.60;99.90;;;;;;5050400;28;20036;-48